Time;durP1;ratioP1;P1;durP2;ratioP2;P2;SDS_P1;SDS_P2;PMS_P1;PMS_P2;Temp;Humidity;BMP_temperature;BMP_pressure;BME280_temperature;BME280_humidity;BME280_pressure;Samples;Min_cycle;Max_cycle;Signal;HPM_P1;HPM_P2
2023/12/26 00:00:29;;;;;;;11.13;2.33;;;;;;;7.75;100.00;99915.63;6092196;23;20077;-93
2023/12/26 00:02:55;;;;;;;18.25;2.58;;;;;;;7.72;100.00;99913.22;6090703;23;20009;-93
2023/12/26 00:05:21;;;;;;;16.90;2.30;;;;;;;7.87;100.00;99926.97;6090580;23;20089;-92
2023/12/26 00:07:47;;;;;;;15.73;2.15;;;;;;;7.82;100.00;99928.97;6091072;23;20089;-92
2023/12/26 00:10:15;;;;;;;11.55;1.80;;;;;;;7.89;100.00;99912.31;6091978;23;20025;-93
2023/12/26 00:12:42;;;;;;;9.95;1.40;;;;;;;7.88;100.00;99923.50;6090531;23;20029;-92
2023/12/26 00:15:08;;;;;;;15.23;2.00;;;;;;;7.80;100.00;99923.91;6091465;23;20009;-92
2023/12/26 00:17:33;;;;;;;19.15;2.30;;;;;;;7.79;100.00;99922.25;6091497;23;20434;-92
2023/12/26 00:19:59;;;;;;;12.45;1.63;;;;;;;7.77;100.00;99928.38;6091516;23;20009;-92
2023/12/26 00:22:24;;;;;;;13.48;2.30;;;;;;;7.82;100.00;99923.81;6091871;23;20371;-92
2023/12/26 00:24:50;;;;;;;13.35;2.25;;;;;;;7.85;100.00;99923.66;6091600;23;20006;-91
2023/12/26 00:27:15;;;;;;;20.55;2.63;;;;;;;7.85;100.00;99929.66;6090357;23;20337;-90
2023/12/26 00:29:41;;;;;;;19.35;2.97;;;;;;;7.83;100.00;99928.91;6091791;23;20036;-92
2023/12/26 00:32:06;;;;;;;17.15;2.53;;;;;;;7.77;100.00;99941.22;6091428;23;20048;-92
2023/12/26 00:34:32;;;;;;;23.27;3.25;;;;;;;7.90;100.00;99937.94;6091312;23;20057;-92
2023/12/26 00:36:57;;;;;;;17.63;2.25;;;;;;;7.84;100.00;99947.69;6090187;23;20026;-92
2023/12/26 00:39:22;;;;;;;25.08;4.18;;;;;;;7.85;100.00;99957.06;6091659;23;20006;-92
2023/12/26 00:41:48;;;;;;;24.50;2.20;;;;;;;7.84;100.00;99960.53;6092024;23;20006;-92
2023/12/26 00:44:13;;;;;;;30.23;6.88;;;;;;;7.77;100.00;99957.47;6090736;23;20007;-90
2023/12/26 00:46:38;;;;;;;21.75;2.72;;;;;;;7.85;100.00;99963.03;6090780;23;20013;-87
2023/12/26 00:49:04;;;;;;;25.95;4.50;;;;;;;7.89;100.00;99951.66;6090160;23;20010;-91
2023/12/26 00:51:30;;;;;;;22.77;2.40;;;;;;;7.86;100.00;99940.75;6091579;23;20010;-90
2023/12/26 00:53:56;;;;;;;18.58;2.35;;;;;;;7.83;100.00;99935.78;6091332;23;20034;-91
2023/12/26 00:56:22;;;;;;;25.02;2.92;;;;;;;7.90;100.00;99939.66;6090926;23;20418;-91
2023/12/26 00:58:47;;;;;;;17.92;3.15;;;;;;;7.78;100.00;99932.59;6091226;23;20268;-91
2023/12/26 01:01:14;;;;;;;29.30;3.67;;;;;;;7.83;100.00;99939.16;6089702;23;20566;-91
2023/12/26 01:03:39;;;;;;;27.35;2.97;;;;;;;7.76;100.00;99944.72;6091126;23;20425;-94
2023/12/26 01:06:05;;;;;;;21.05;4.53;;;;;;;7.79;100.00;99949.69;6089332;23;20028;-92
2023/12/26 01:08:30;;;;;;;21.40;4.15;;;;;;;7.78;100.00;99948.00;6091239;23;20002;-91
2023/12/26 01:10:56;;;;;;;32.03;3.97;;;;;;;7.85;100.00;99949.34;6091407;23;20002;-90
2023/12/26 01:13:21;;;;;;;27.48;3.13;;;;;;;7.84;100.00;99952.84;6090583;23;20010;-91
2023/12/26 01:15:47;;;;;;;28.02;2.88;;;;;;;7.81;100.00;99951.25;6089539;23;20022;-91
2023/12/26 01:18:12;;;;;;;24.65;4.00;;;;;;;7.88;100.00;99960.31;6090083;23;20007;-89
2023/12/26 01:20:37;;;;;;;25.92;3.13;;;;;;;7.79;100.00;99970.25;6091639;23;20002;-90
2023/12/26 01:23:03;;;;;;;27.80;2.92;;;;;;;7.78;100.00;99966.84;6091152;23;20259;-91
2023/12/26 01:25:29;;;;;;;24.52;3.45;;;;;;;7.77;100.00;99982.34;6089146;23;20006;-91
2023/12/26 01:27:54;;;;;;;23.83;2.92;;;;;;;7.81;100.00;99971.81;6091002;23;20037;-91
2023/12/26 01:30:20;;;;;;;20.77;2.83;;;;;;;7.82;100.00;99978.59;6092797;23;20311;-89
2023/12/26 01:32:45;;;;;;;12.00;2.15;;;;;;;7.74;100.00;99987.66;6092679;23;20066;-91
2023/12/26 01:35:10;;;;;;;23.10;2.92;;;;;;;7.69;100.00;99990.44;6092036;23;20003;-91
2023/12/26 01:37:36;;;;;;;17.40;2.50;;;;;;;7.63;100.00;99994.19;6091232;23;20306;-90
2023/12/26 01:40:01;;;;;;;22.45;3.40;;;;;;;7.59;100.00;99989.28;6092632;23;20010;-90
2023/12/26 01:42:26;;;;;;;16.30;3.03;;;;;;;7.50;100.00;99993.16;6092465;23;20078;-91
2023/12/26 01:44:52;;;;;;;18.27;3.55;;;;;;;7.46;100.00;99983.94;6092172;23;20318;-88
2023/12/26 01:47:18;;;;;;;15.93;2.83;;;;;;;7.45;100.00;99979.72;6092842;23;20002;-91
2023/12/26 01:49:44;;;;;;;6.60;1.77;;;;;;;7.47;100.00;99975.34;6092547;23;20006;-92
2023/12/26 01:52:12;;;;;;;15.73;2.50;;;;;;;7.41;100.00;99980.78;6091075;23;20082;-92
2023/12/26 01:54:38;;;;;;;18.92;2.95;;;;;;;7.31;100.00;99977.03;6092408;23;20006;-91
2023/12/26 01:57:07;;;;;;;18.05;2.10;;;;;;;7.34;100.00;99985.41;6090361;23;20010;-89
2023/12/26 01:59:37;;;;;;;17.38;3.50;;;;;;;7.27;100.00;99994.34;6091691;23;20007;-90
2023/12/26 02:02:07;;;;;;;13.50;2.13;;;;;;;7.27;100.00;99992.59;6092407;23;20003;-91
2023/12/26 02:04:32;;;;;;;13.13;2.40;;;;;;;7.20;100.00;99996.38;6092022;23;20022;-91
2023/12/26 02:06:58;;;;;;;15.60;2.25;;;;;;;7.16;100.00;100001.75;6092485;23;20010;-91
2023/12/26 02:09:24;;;;;;;14.82;2.15;;;;;;;7.15;100.00;100000.91;6092748;23;20002;-89
2023/12/26 02:11:51;;;;;;;13.60;1.90;;;;;;;7.07;100.00;100015.84;6092535;23;20421;-91
2023/12/26 02:14:17;;;;;;;17.05;2.05;;;;;;;7.08;100.00;100020.09;6092041;23;20085;-90
2023/12/26 02:16:44;;;;;;;17.48;2.50;;;;;;;7.01;100.00;100026.44;6092043;23;20492;-90
2023/12/26 02:19:10;;;;;;;10.07;1.90;;;;;;;7.04;100.00;100028.84;6090716;23;20440;-90
2023/12/26 02:21:35;;;;;;;13.00;1.80;;;;;;;7.03;100.00;100037.44;6092315;23;20073;-91
2023/12/26 02:24:01;;;;;;;14.93;3.28;;;;;;;6.96;100.00;100046.34;6092164;23;20003;-90
2023/12/26 02:26:28;;;;;;;23.15;2.72;;;;;;;7.01;100.00;100050.34;6091630;23;20010;-90
2023/12/26 02:28:55;;;;;;;12.48;1.92;;;;;;;6.99;100.00;100056.47;6092240;23;20078;-90
2023/12/26 02:31:22;;;;;;;14.10;1.90;;;;;;;6.90;100.00;100057.75;6092426;23;19999;-90
2023/12/26 02:33:48;;;;;;;12.68;1.83;;;;;;;6.82;100.00;100065.78;6092422;23;20007;-90
2023/12/26 02:36:14;;;;;;;12.35;2.22;;;;;;;6.89;100.00;100084.28;6092311;23;20025;-90
2023/12/26 02:38:40;;;;;;;16.75;2.20;;;;;;;6.87;100.00;100083.53;6092462;23;20342;-91
2023/12/26 02:41:05;;;;;;;17.85;2.30;;;;;;;6.81;100.00;100086.41;6090550;23;20090;-91
2023/12/26 02:43:32;;;;;;;12.57;1.92;;;;;;;6.75;100.00;100087.50;6092317;23;20006;-91
2023/12/26 02:45:58;;;;;;;12.00;1.65;;;;;;;6.73;100.00;100091.91;6090300;23;20033;-91
2023/12/26 02:48:23;;;;;;;16.17;2.25;;;;;;;6.68;100.00;100093.00;6092183;23;20325;-91
2023/12/26 02:50:49;;;;;;;23.70;1.95;;;;;;;6.62;100.00;100091.56;6092434;23;20326;-91
2023/12/26 02:53:14;;;;;;;14.73;1.85;;;;;;;6.60;100.00;100091.63;6092110;23;20042;-92
2023/12/26 02:55:40;;;;;;;16.40;2.15;;;;;;;6.70;100.00;100102.28;6091500;23;20428;-90
2023/12/26 02:58:05;;;;;;;14.25;2.10;;;;;;;6.62;100.00;100104.38;6091854;23;20014;-92
2023/12/26 03:00:31;;;;;;;19.90;2.13;;;;;;;6.72;100.00;100094.53;6092150;23;20321;-92
2023/12/26 03:02:56;;;;;;;13.65;2.50;;;;;;;6.69;100.00;100100.63;6092515;23;20479;-91
2023/12/26 03:05:23;;;;;;;10.85;1.95;;;;;;;6.60;100.00;100101.06;6092142;23;20057;-89
2023/12/26 03:07:48;;;;;;;17.05;1.92;;;;;;;6.60;100.00;100101.06;6092125;23;20006;-91
2023/12/26 03:10:14;;;;;;;19.55;2.63;;;;;;;6.52;100.00;100098.84;6090935;23;20452;-91
2023/12/26 03:12:39;;;;;;;14.40;2.72;;;;;;;6.65;100.00;100099.09;6090460;23;20034;-92
2023/12/26 03:15:05;;;;;;;9.07;1.52;;;;;;;6.51;100.00;100107.47;6092093;23;20082;-91
2023/12/26 03:17:30;;;;;;;12.77;2.47;;;;;;;6.60;100.00;100111.31;6092080;23;20002;-90
2023/12/26 03:19:56;;;;;;;17.40;2.67;;;;;;;6.50;100.00;100110.91;6092284;23;20056;-91
2023/12/26 03:22:21;;;;;;;17.58;2.45;;;;;;;6.50;100.00;100116.03;6092159;23;20014;-92
2023/12/26 03:24:47;;;;;;;13.35;2.15;;;;;;;6.47;100.00;100110.22;6090496;23;20007;-91
2023/12/26 03:27:14;;;;;;;16.13;2.67;;;;;;;6.55;100.00;100110.69;6091499;23;20061;-91
2023/12/26 03:29:39;;;;;;;17.10;2.28;;;;;;;6.54;100.00;100109.03;6092304;23;20068;-92
2023/12/26 03:32:05;;;;;;;17.63;2.17;;;;;;;6.56;100.00;100117.47;6091810;23;20010;-92
2023/12/26 03:34:31;;;;;;;16.23;2.13;;;;;;;6.51;100.00;100121.97;6091657;23;20006;-91
2023/12/26 03:36:56;;;;;;;9.50;1.67;;;;;;;6.34;100.00;100110.78;6092469;23;20421;-92
2023/12/26 03:39:21;;;;;;;16.92;2.45;;;;;;;6.46;100.00;100129.88;6092225;23;20002;-91
2023/12/26 03:41:48;;;;;;;17.60;2.20;;;;;;;6.50;100.00;100120.34;6091998;23;20002;-92
2023/12/26 03:44:17;;;;;;;15.32;2.65;;;;;;;6.43;100.00;100120.59;6091907;23;20013;-93
2023/12/26 03:46:43;;;;;;;20.73;2.63;;;;;;;6.46;100.00;100129.06;6092219;23;20029;-93
2023/12/26 03:49:10;;;;;;;20.33;3.00;;;;;;;6.38;100.00;100117.41;6092007;23;20003;-92
2023/12/26 03:51:36;;;;;;;24.20;3.40;;;;;;;6.42;100.00;100123.25;6091471;23;20006;-92
2023/12/26 03:54:01;;;;;;;21.08;2.83;;;;;;;6.42;100.00;100121.50;6090643;23;20163;-92
2023/12/26 03:56:31;;;;;;;15.70;2.60;;;;;;;6.41;100.00;100127.56;6091613;23;20402;-92
2023/12/26 03:58:58;;;;;;;19.63;2.53;;;;;;;6.45;100.00;100128.22;6092220;23;20017;-90
2023/12/26 04:01:24;;;;;;;13.85;2.20;;;;;;;6.39;100.00;100129.34;6090362;23;20325;-93
2023/12/26 04:03:50;;;;;;;14.70;1.65;;;;;;;6.37;100.00;100125.19;6090253;23;20006;-92
2023/12/26 04:06:15;;;;;;;21.13;2.50;;;;;;;6.48;100.00;100117.00;6091908;23;20054;-92
2023/12/26 04:08:41;;;;;;;26.05;3.13;;;;;;;6.51;100.00;100116.84;6091704;23;20433;-91
2023/12/26 04:11:07;;;;;;;13.95;2.65;;;;;;;6.45;100.00;100112.03;6090322;23;20006;-91
2023/12/26 04:13:32;;;;;;;16.25;2.85;;;;;;;6.48;100.00;100112.69;6091932;23;20007;-90
2023/12/26 04:15:59;;;;;;;23.23;3.05;;;;;;;6.52;100.00;100119.38;6091596;23;20084;-90
2023/12/26 04:18:25;;;;;;;24.02;2.72;;;;;;;6.47;100.00;100123.03;6091806;23;20010;-90
2023/12/26 04:20:50;;;;;;;20.33;4.78;;;;;;;6.38;100.00;100119.97;6091808;23;20002;-90
2023/12/26 04:23:15;;;;;;;15.95;2.35;;;;;;;6.51;100.00;100138.22;6091429;23;20039;-90
2023/12/26 04:25:41;;;;;;;14.63;3.38;;;;;;;6.42;100.00;100139.44;6091070;23;20330;-90
2023/12/26 04:28:06;;;;;;;21.90;2.22;;;;;;;6.52;100.00;100131.34;6091247;23;20089;-90
2023/12/26 04:30:31;;;;;;;17.73;2.40;;;;;;;6.52;100.00;100144.19;6091464;23;20441;-90
2023/12/26 04:32:57;;;;;;;15.65;2.45;;;;;;;6.51;100.00;100143.34;6088024;23;20009;-91
2023/12/26 04:35:22;;;;;;;19.38;2.33;;;;;;;6.49;100.00;100152.84;6089594;23;20010;-90
2023/12/26 04:37:48;;;;;;;12.75;2.13;;;;;;;6.54;100.00;100142.38;6091561;23;20006;-90
2023/12/26 04:40:13;;;;;;;16.65;1.95;;;;;;;6.48;100.00;100145.19;6091462;23;20006;-90
2023/12/26 04:42:39;;;;;;;17.88;1.90;;;;;;;6.55;100.00;100141.47;6091498;23;20007;-90
2023/12/26 04:45:04;;;;;;;14.10;2.58;;;;;;;6.44;100.00;100134.28;6091421;23;20021;-90
2023/12/26 04:47:30;;;;;;;13.07;2.33;;;;;;;6.59;100.00;100145.56;6091630;23;20003;-90
2023/12/26 04:49:55;;;;;;;20.58;1.95;;;;;;;6.60;100.00;100142.09;6090004;23;20002;-90
2023/12/26 04:52:21;;;;;;;13.05;2.00;;;;;;;6.58;100.00;100138.75;6089953;23;20006;-90
2023/12/26 04:54:46;;;;;;;19.08;2.80;;;;;;;6.58;100.00;100131.91;6090834;23;20003;-90
2023/12/26 04:57:12;;;;;;;17.88;2.67;;;;;;;6.62;100.00;100146.22;6090704;23;20342;-90
2023/12/26 04:59:40;;;;;;;10.77;1.75;;;;;;;6.60;100.00;100160.03;6089106;23;20492;-90
2023/12/26 05:02:06;;;;;;;16.15;3.55;;;;;;;6.57;100.00;100162.75;6091293;23;20006;-90
2023/12/26 05:04:31;;;;;;;18.38;2.55;;;;;;;6.58;100.00;100160.13;6090530;23;20083;-90
2023/12/26 05:06:57;;;;;;;15.80;2.53;;;;;;;6.52;100.00;100164.69;6092357;23;20011;-90
2023/12/26 05:09:22;;;;;;;15.23;2.28;;;;;;;6.48;100.00;100158.03;6092354;23;20006;-90
2023/12/26 05:11:47;;;;;;;30.67;2.83;;;;;;;6.56;100.00;100161.06;6092648;23;20311;-90
2023/12/26 05:14:13;;;;;;;20.90;2.33;;;;;;;6.43;100.00;100171.88;6092148;23;20006;-89
2023/12/26 05:16:42;;;;;;;17.65;3.08;;;;;;;6.55;100.00;100165.38;6092425;23;20007;-90
2023/12/26 05:19:08;;;;;;;19.67;3.00;;;;;;;6.53;100.00;100174.03;6092350;23;20003;-90
2023/12/26 05:21:35;;;;;;;20.40;2.42;;;;;;;6.51;100.00;100178.38;6092675;23;20006;-90
2023/12/26 05:24:00;;;;;;;19.50;2.28;;;;;;;6.53;100.00;100181.72;6093188;23;20007;-90
2023/12/26 05:26:25;;;;;;;18.17;2.20;;;;;;;6.51;100.00;100183.50;6089633;23;20436;-90
2023/12/26 05:28:51;;;;;;;22.48;3.15;;;;;;;6.48;100.00;100178.53;6091713;23;20006;-90
2023/12/26 05:31:20;;;;;;;26.60;3.53;;;;;;;6.54;100.00;100189.34;6090319;23;20490;-91
2023/12/26 05:33:46;;;;;;;24.85;2.33;;;;;;;6.51;100.00;100186.94;6092042;23;20007;-90
2023/12/26 05:36:11;;;;;;;13.15;2.42;;;;;;;6.50;100.00;100194.69;6091928;23;20086;-91
2023/12/26 05:38:37;;;;;;;20.33;2.58;;;;;;;6.51;100.00;100198.91;6092141;23;20003;-90
2023/12/26 05:41:05;;;;;;;15.27;2.58;;;;;;;6.46;100.00;100198.28;6092041;23;20060;-89
2023/12/26 05:43:31;;;;;;;11.55;1.95;;;;;;;6.43;100.00;100205.19;6092433;23;20002;-90
2023/12/26 05:45:57;;;;;;;25.23;2.85;;;;;;;6.51;100.00;100207.44;6091961;23;20011;-90
2023/12/26 05:48:22;;;;;;;18.73;3.13;;;;;;;6.51;100.00;100209.16;6092160;23;20089;-90
2023/12/26 05:50:48;;;;;;;24.30;2.67;;;;;;;6.65;100.00;100217.06;6090791;23;20325;-90
2023/12/26 05:53:13;;;;;;;23.65;2.63;;;;;;;6.53;100.00;100217.63;6091989;23;20084;-89
2023/12/26 05:55:38;;;;;;;23.90;2.58;;;;;;;6.49;100.00;100221.22;6089352;23;19998;-90
2023/12/26 05:58:04;;;;;;;19.88;2.30;;;;;;;6.61;100.00;100218.94;6092075;23;20002;-90
2023/12/26 06:00:29;;;;;;;17.45;2.67;;;;;;;6.58;100.00;100218.25;6090508;23;20013;-90
2023/12/26 06:02:54;;;;;;;16.73;2.33;;;;;;;6.55;100.00;100226.06;6090587;23;20333;-90
2023/12/26 06:05:20;;;;;;;14.75;2.20;;;;;;;6.46;100.00;100231.59;6091818;23;20034;-90
2023/12/26 06:07:45;;;;;;;16.63;2.65;;;;;;;6.45;100.00;100235.91;6091967;23;20006;-90
2023/12/26 06:10:11;;;;;;;17.80;2.28;;;;;;;6.56;100.00;100240.56;6091974;23;20477;-90
2023/12/26 06:12:36;;;;;;;11.10;1.60;;;;;;;6.57;100.00;100231.97;6090416;23;20007;-89
2023/12/26 06:15:02;;;;;;;13.13;2.33;;;;;;;6.46;100.00;100257.25;6089932;23;20072;-90
2023/12/26 06:17:29;;;;;;;17.90;2.80;;;;;;;6.55;100.00;100251.72;6090366;23;20472;-91
2023/12/26 06:19:54;;;;;;;11.85;2.58;;;;;;;6.45;100.00;100260.72;6092027;23;20473;-91
2023/12/26 06:22:20;;;;;;;18.73;2.88;;;;;;;6.45;100.00;100264.09;6091873;23;20033;-90
2023/12/26 06:24:45;;;;;;;11.45;2.28;;;;;;;6.53;100.00;100264.59;6091342;23;20034;-91
2023/12/26 06:27:11;;;;;;;20.55;2.28;;;;;;;6.45;100.00;100270.97;6092056;23;20544;-90
2023/12/26 06:29:36;;;;;;;18.25;2.05;;;;;;;6.41;100.00;100278.81;6092023;23;20002;-91
2023/12/26 06:32:02;;;;;;;14.45;2.10;;;;;;;6.40;100.00;100283.97;6091808;23;20007;-90
2023/12/26 06:34:27;;;;;;;20.33;2.90;;;;;;;6.32;100.00;100298.88;6091822;23;20430;-90
2023/12/26 06:36:52;;;;;;;18.60;2.40;;;;;;;6.35;100.00;100286.72;6091856;23;20307;-90
2023/12/26 06:39:18;;;;;;;18.33;1.95;;;;;;;6.29;100.00;100297.25;6090568;23;20014;-90
2023/12/26 06:41:43;;;;;;;21.90;2.30;;;;;;;6.15;100.00;100314.94;6092010;23;20021;-90
2023/12/26 06:44:10;;;;;;;14.55;1.98;;;;;;;6.17;100.00;100313.16;6092104;23;20003;-90
2023/12/26 06:46:42;;;;;;;14.82;2.33;;;;;;;6.17;100.00;100313.16;6090395;23;20243;-90
2023/12/26 06:49:08;;;;;;;18.13;2.25;;;;;;;6.17;100.00;100311.41;6092204;23;20003;-90
2023/12/26 06:51:37;;;;;;;17.92;1.98;;;;;;;6.31;100.00;100326.19;6090306;23;20010;-90
2023/12/26 06:54:03;;;;;;;15.98;2.83;;;;;;;6.22;100.00;100326.59;6092079;23;20009;-90
2023/12/26 06:56:28;;;;;;;10.68;2.00;;;;;;;6.11;100.00;100344.13;6090672;23;20003;-90
2023/12/26 06:58:54;;;;;;;13.52;2.03;;;;;;;6.11;100.00;100334.72;6092004;23;20074;-90
2023/12/26 07:01:19;;;;;;;16.30;2.13;;;;;;;6.07;100.00;100357.97;6090478;23;20576;-90
2023/12/26 07:03:45;;;;;;;15.85;2.33;;;;;;;6.10;100.00;100352.72;6091674;23;20065;-90
2023/12/26 07:06:10;;;;;;;15.88;2.20;;;;;;;6.08;100.00;100354.53;6090370;23;20009;-89
2023/12/26 07:08:35;;;;;;;13.23;1.77;;;;;;;6.09;100.00;100366.41;6090432;23;20007;-90
2023/12/26 07:11:01;;;;;;;19.90;2.85;;;;;;;6.11;100.00;100364.63;6091936;23;20333;-90
2023/12/26 07:13:27;;;;;;;19.98;2.33;;;;;;;6.26;100.00;100364.00;6091911;23;20002;-89
2023/12/26 07:15:52;;;;;;;12.75;2.97;;;;;;;6.35;100.00;100368.75;6091751;23;20006;-90
2023/12/26 07:18:18;;;;;;;14.88;1.98;;;;;;;6.21;100.00;100368.50;6090491;23;20007;-90
2023/12/26 07:20:43;;;;;;;20.40;3.95;;;;;;;6.37;100.00;100369.53;6090546;23;20022;-91
2023/12/26 07:23:09;;;;;;;16.83;2.38;;;;;;;6.34;100.00;100377.38;6090609;23;20081;-90
2023/12/26 07:25:34;;;;;;;15.57;2.90;;;;;;;6.26;100.00;100374.25;6089425;23;20033;-91
2023/12/26 07:27:59;;;;;;;15.73;2.22;;;;;;;6.22;100.00;100372.72;6091273;23;20002;-91
2023/12/26 07:30:25;;;;;;;16.77;2.15;;;;;;;6.24;100.00;100373.47;6091494;23;20429;-90
2023/12/26 07:32:50;;;;;;;22.50;2.42;;;;;;;6.20;100.00;100379.66;6091924;23;20002;-90
2023/12/26 07:35:16;;;;;;;19.38;2.50;;;;;;;6.20;100.00;100389.91;6090267;23;20407;-90
2023/12/26 07:37:41;;;;;;;15.60;2.35;;;;;;;6.13;100.00;100401.28;6090460;23;20029;-90
2023/12/26 07:40:07;;;;;;;17.60;2.05;;;;;;;6.10;100.00;100404.81;6090422;23;20095;-90
2023/12/26 07:42:32;;;;;;;20.17;2.72;;;;;;;6.05;100.00;100405.84;6091723;23;20433;-88
2023/12/26 07:44:58;;;;;;;14.85;2.70;;;;;;;6.06;100.00;100408.38;6091628;23;20017;-91
2023/12/26 07:47:23;;;;;;;20.50;2.65;;;;;;;6.10;100.00;100409.94;6090944;23;20006;-90
2023/12/26 07:49:48;;;;;;;14.82;2.47;;;;;;;6.25;100.00;100423.03;6091754;23;20003;-90
2023/12/26 07:52:14;;;;;;;15.43;2.28;;;;;;;6.25;100.00;100421.31;6091852;23;20380;-90
2023/12/26 07:54:39;;;;;;;14.02;2.65;;;;;;;6.33;100.00;100437.19;6089984;23;20038;-90
2023/12/26 07:57:05;;;;;;;21.23;2.97;;;;;;;6.30;100.00;100431.38;6091589;23;20461;-90
2023/12/26 07:59:31;;;;;;;13.88;2.00;;;;;;;6.36;100.00;100433.69;6090111;23;20456;-90
2023/12/26 08:01:56;;;;;;;13.70;1.98;;;;;;;6.25;100.00;100433.28;6091945;23;20030;-90
2023/12/26 08:04:22;;;;;;;19.27;2.50;;;;;;;6.23;100.00;100448.72;6091518;23;20018;-90
2023/12/26 08:06:48;;;;;;;13.27;2.40;;;;;;;6.26;100.00;100458.00;6089911;23;20081;-90
2023/12/26 08:09:13;;;;;;;20.70;2.83;;;;;;;6.31;100.00;100446.69;6090151;23;20002;-90
2023/12/26 08:11:39;;;;;;;15.93;3.85;;;;;;;6.25;100.00;100444.38;6089999;23;20076;-90
2023/12/26 08:14:04;;;;;;;21.08;2.70;;;;;;;6.11;100.00;100442.34;6091515;23;20060;-91
2023/12/26 08:16:30;;;;;;;19.00;3.03;;;;;;;6.14;100.00;100452.47;6090791;23;20488;-90
2023/12/26 08:18:57;;;;;;;13.68;2.47;;;;;;;6.11;100.00;100449.19;6091371;23;20007;-91
2023/12/26 08:21:23;;;;;;;15.70;2.38;;;;;;;6.14;100.00;100461.88;6090782;23;20002;-91
2023/12/26 08:23:48;;;;;;;19.17;3.38;;;;;;;6.11;100.00;100477.38;6089973;23;20007;-91
2023/12/26 08:26:13;;;;;;;9.65;1.95;;;;;;;6.10;100.00;100475.72;6091338;23;20052;-90
2023/12/26 08:28:39;;;;;;;13.63;2.25;;;;;;;6.07;100.00;100481.81;6089470;23;20022;-90
2023/12/26 08:31:04;;;;;;;17.17;2.03;;;;;;;5.94;100.00;100490.81;6091687;23;20002;-91
2023/12/26 08:33:31;;;;;;;10.80;2.22;;;;;;;5.94;100.00;100506.19;6091394;23;20503;-91
2023/12/26 08:35:56;;;;;;;8.90;2.17;;;;;;;5.87;100.00;100515.78;6091378;23;20086;-91
2023/12/26 08:38:23;;;;;;;15.77;3.00;;;;;;;5.97;100.00;100529.13;6092315;23;20417;-90
2023/12/26 08:40:49;;;;;;;13.70;2.33;;;;;;;5.90;100.00;100528.50;6091463;23;20007;-90
2023/12/26 08:43:14;;;;;;;21.52;2.45;;;;;;;5.89;100.00;100542.19;6091351;23;20057;-90
2023/12/26 08:45:40;;;;;;;16.30;2.58;;;;;;;6.00;100.00;100547.81;6090911;23;20018;-90
2023/12/26 08:48:05;;;;;;;11.93;2.63;;;;;;;5.97;100.00;100542.81;6090176;23;20056;-90
2023/12/26 08:50:31;;;;;;;22.80;3.22;;;;;;;6.06;100.00;100545.91;6091182;23;19999;-90
2023/12/26 08:52:56;;;;;;;15.45;2.30;;;;;;;5.89;100.00;100543.94;6091141;23;20005;-90
2023/12/26 08:55:21;;;;;;;10.98;1.90;;;;;;;5.94;100.00;100542.06;6089352;23;20003;-90
2023/12/26 08:57:47;;;;;;;10.40;1.98;;;;;;;5.85;100.00;100545.75;6089731;23;20030;-90
2023/12/26 09:00:14;;;;;;;11.10;2.40;;;;;;;5.81;100.00;100562.13;6089744;23;20011;-90
2023/12/26 09:02:42;;;;;;;5.78;2.13;;;;;;;5.82;100.00;100568.91;6089836;23;20147;-91
2023/12/26 09:05:07;;;;;;;11.07;2.00;;;;;;;5.86;100.00;100565.38;6089583;23;20094;-91
2023/12/26 09:07:33;;;;;;;15.73;2.58;;;;;;;5.84;100.00;100551.78;6091150;23;20026;-90
2023/12/26 09:09:59;;;;;;;20.80;2.80;;;;;;;5.91;100.00;100555.78;6090522;23;20132;-90
2023/12/26 09:12:24;;;;;;;8.80;1.70;;;;;;;5.90;100.00;100549.00;6089382;23;20161;-90
2023/12/26 09:14:50;;;;;;;13.95;1.88;;;;;;;5.99;100.00;100558.94;6090389;23;20445;-90
2023/12/26 09:17:16;;;;;;;14.48;2.58;;;;;;;5.95;100.00;100554.81;6091186;23;20098;-90
2023/12/26 09:19:41;;;;;;;11.25;1.98;;;;;;;5.96;100.00;100553.09;6089569;23;20042;-89
2023/12/26 09:22:07;;;;;;;13.23;2.50;;;;;;;6.02;100.00;100549.47;6091036;23;20065;-89
2023/12/26 09:24:32;;;;;;;14.52;2.10;;;;;;;5.98;100.00;100549.59;6089232;23;20016;-89
2023/12/26 09:26:58;;;;;;;11.68;2.10;;;;;;;5.96;100.00;100541.13;6091009;23;20010;-89
2023/12/26 09:29:23;;;;;;;16.20;2.28;;;;;;;6.02;100.00;100549.47;6091136;23;20002;-90
2023/12/26 09:31:49;;;;;;;11.55;2.55;;;;;;;6.10;100.00;100557.72;6089802;23;20097;-89
2023/12/26 09:34:14;;;;;;;16.20;2.17;;;;;;;6.09;100.00;100567.13;6090834;23;20006;-89
2023/12/26 09:36:39;;;;;;;14.00;1.85;;;;;;;6.03;100.00;100566.53;6089412;23;20388;-90
2023/12/26 09:39:05;;;;;;;11.23;3.33;;;;;;;6.00;100.00;100577.72;6089469;23;20015;-89
2023/12/26 09:41:30;;;;;;;15.25;3.38;;;;;;;5.98;100.00;100585.44;6090391;23;20033;-89
2023/12/26 09:43:56;;;;;;;10.98;2.33;;;;;;;6.05;100.00;100595.47;6090888;23;20081;-90
2023/12/26 09:46:22;;;;;;;6.80;2.00;;;;;;;6.08;100.00;100603.88;6090856;23;20426;-89
2023/12/26 09:48:47;;;;;;;12.95;3.00;;;;;;;6.13;100.00;100616.53;6089567;23;20002;-90
2023/12/26 09:51:22;;;;;;;13.68;2.35;;;;;;;6.13;100.00;100619.94;6090043;23;20007;-90
2023/12/26 09:53:59;;;;;;;9.00;1.30;;;;;;;6.15;100.00;100618.16;6092248;23;20082;-90
2023/12/26 09:56:25;;;;;;;13.30;2.70;;;;;;;6.14;100.00;100629.28;6088985;23;20303;-90
2023/12/26 09:58:53;;;;;;;18.15;2.72;;;;;;;6.10;100.00;100621.78;6091569;23;20006;-90
2023/12/26 10:01:20;;;;;;;9.38;1.98;;;;;;;6.18;100.00;100623.16;6091710;23;20451;-90
2023/12/26 10:03:46;;;;;;;13.73;2.08;;;;;;;6.24;100.00;100623.81;6089340;23;20006;-90
2023/12/26 10:06:13;;;;;;;9.82;1.58;;;;;;;6.33;100.00;100647.41;6090093;23;20021;-90
2023/12/26 10:08:40;;;;;;;15.10;2.03;;;;;;;6.35;100.00;100650.75;6091396;23;20430;-90
2023/12/26 10:11:06;;;;;;;15.15;2.42;;;;;;;6.42;100.00;100652.19;6087685;23;20006;-90
2023/12/26 10:13:52;;;;;;;16.77;2.20;;;;;;;6.52;100.00;100636.47;6091325;23;20469;-91
2023/12/26 10:16:19;;;;;;;14.73;1.85;;;;;;;6.55;100.00;100646.59;6090832;23;20011;-90
2023/12/26 10:18:45;;;;;;;14.02;3.42;;;;;;;6.49;100.00;100649.41;6090838;23;19998;-90
2023/12/26 10:21:11;;;;;;;25.88;3.45;;;;;;;6.39;100.00;100651.50;6090560;23;20056;-90
2023/12/26 10:23:36;;;;;;;11.15;2.35;;;;;;;6.52;100.00;100649.31;6091683;23;20045;-90
2023/12/26 10:26:02;;;;;;;9.73;1.75;;;;;;;6.54;100.00;100662.91;6091185;23;20006;-90
2023/12/26 10:28:27;;;;;;;15.10;2.92;;;;;;;6.59;100.00;100668.69;6090368;23;20077;-89
2023/12/26 10:30:53;;;;;;;9.43;1.92;;;;;;;6.65;100.00;100663.31;6091728;23;20176;-90
2023/12/26 10:33:28;;;;;;;7.93;2.05;;;;;;;6.73;100.00;100669.03;6090494;23;20064;-90
2023/12/26 10:36:07;;;;;;;13.75;2.20;;;;;;;6.78;100.00;100682.50;6088434;23;20227;-90
2023/12/26 10:38:34;;;;;;;16.63;2.72;;;;;;;6.77;100.00;100688.50;6089413;23;20002;-90
2023/12/26 10:41:07;;;;;;;15.10;2.72;;;;;;;6.82;100.00;100694.31;6090902;23;20013;-90
2023/12/26 10:43:34;;;;;;;17.15;2.83;;;;;;;6.82;100.00;100702.00;6090893;23;20009;-90
2023/12/26 10:46:00;;;;;;;13.80;2.17;;;;;;;6.86;100.00;100711.25;6091063;23;20006;-90
2023/12/26 10:48:32;;;;;;;10.27;2.08;;;;;;;6.97;100.00;100707.44;6091784;23;20006;-91
2023/12/26 10:50:59;;;;;;;11.10;2.00;;;;;;;7.02;100.00;100711.53;6088908;23;20342;-90
2023/12/26 10:53:38;;;;;;;10.25;1.60;;;;;;;7.12;100.00;100721.41;6091628;23;20007;-91
2023/12/26 10:56:05;;;;;;;11.15;2.22;;;;;;;7.01;100.00;100726.97;6091687;23;20007;-91
2023/12/26 10:58:32;;;;;;;18.08;2.33;;;;;;;7.11;100.00;100725.72;6091602;23;20455;-91
2023/12/26 13:52:43;;;;;;;11.50;1.92;;;;;;;9.13;100.00;100707.72;6091526;23;20388;-93
2023/12/26 13:55:09;;;;;;;7.10;1.42;;;;;;;9.23;100.00;100697.84;6091109;23;20082;-93
2023/12/26 13:57:34;;;;;;;8.15;2.00;;;;;;;9.18;100.00;100700.63;6091691;23;20025;-92
2023/12/26 13:59:59;;;;;;;7.60;1.98;;;;;;;9.30;100.00;100699.22;6091211;23;20110;-92
2023/12/26 14:02:25;;;;;;;9.32;2.35;;;;;;;9.33;100.00;100704.19;6091865;23;20026;-93
2023/12/26 14:04:52;;;;;;;8.88;1.60;;;;;;;9.20;100.00;100694.50;6096694;23;20014;-95